sensor_id;sensor_type;location;lat;lon;timestamp;P1;durP1;ratioP1;P2;durP2;ratioP2
10934;SDS011;5520;45.752;4.874;2022-12-15T00:01:20;34.47;;;15.47;;
10934;SDS011;5520;45.752;4.874;2022-12-15T00:04:05;23.67;;;12.27;;
10934;SDS011;5520;45.752;4.874;2022-12-15T00:06:51;16.90;;;9.13;;
10934;SDS011;5520;45.752;4.874;2022-12-15T00:09:37;15.07;;;7.73;;
10934;SDS011;5520;45.752;4.874;2022-12-15T00:12:22;15.33;;;8.73;;
10934;SDS011;5520;45.752;4.874;2022-12-15T00:15:09;24.77;;;13.60;;
10934;SDS011;5520;45.752;4.874;2022-12-15T00:17:54;28.43;;;14.50;;
10934;SDS011;5520;45.752;4.874;2022-12-15T00:20:40;27.83;;;14.63;;
10934;SDS011;5520;45.752;4.874;2022-12-15T00:23:25;25.50;;;12.23;;
10934;SDS011;5520;45.752;4.874;2022-12-15T00:26:11;16.30;;;8.43;;
10934;SDS011;5520;45.752;4.874;2022-12-15T00:28:56;13.57;;;7.63;;
10934;SDS011;5520;45.752;4.874;2022-12-15T00:31:43;17.17;;;9.00;;
10934;SDS011;5520;45.752;4.874;2022-12-15T00:34:29;15.00;;;9.07;;
10934;SDS011;5520;45.752;4.874;2022-12-15T00:37:14;10.77;;;6.53;;
10934;SDS011;5520;45.752;4.874;2022-12-15T00:40:00;11.87;;;7.23;;
10934;SDS011;5520;45.752;4.874;2022-12-15T00:42:30;9.67;;;7.13;;
10934;SDS011;5520;45.752;4.874;2022-12-15T00:44:58;12.20;;;7.43;;
10934;SDS011;5520;45.752;4.874;2022-12-15T00:47:27;11.57;;;7.67;;
10934;SDS011;5520;45.752;4.874;2022-12-15T00:49:54;12.77;;;8.43;;
10934;SDS011;5520;45.752;4.874;2022-12-15T00:52:39;14.20;;;8.43;;
10934;SDS011;5520;45.752;4.874;2022-12-15T00:55:25;15.13;;;8.03;;
10934;SDS011;5520;45.752;4.874;2022-12-15T00:58:11;7.47;;;6.07;;
10934;SDS011;5520;45.752;4.874;2022-12-15T01:00:56;7.03;;;5.57;;
10934;SDS011;5520;45.752;4.874;2022-12-15T01:03:43;7.23;;;6.20;;
10934;SDS011;5520;45.752;4.874;2022-12-15T01:06:29;8.63;;;6.67;;
10934;SDS011;5520;45.752;4.874;2022-12-15T01:09:14;10.63;;;7.70;;
10934;SDS011;5520;45.752;4.874;2022-12-15T01:12:00;6.47;;;5.63;;
10934;SDS011;5520;45.752;4.874;2022-12-15T01:14:45;6.30;;;5.03;;
10934;SDS011;5520;45.752;4.874;2022-12-15T01:17:31;6.43;;;5.70;;
10934;SDS011;5520;45.752;4.874;2022-12-15T01:20:18;6.33;;;5.70;;
10934;SDS011;5520;45.752;4.874;2022-12-15T01:22:46;7.43;;;5.40;;
10934;SDS011;5520;45.752;4.874;2022-12-15T01:25:15;6.73;;;5.73;;
10934;SDS011;5520;45.752;4.874;2022-12-15T01:27:43;7.87;;;5.10;;
10934;SDS011;5520;45.752;4.874;2022-12-15T01:30:12;6.67;;;6.00;;
10934;SDS011;5520;45.752;4.874;2022-12-15T01:32:41;7.40;;;5.97;;
10934;SDS011;5520;45.752;4.874;2022-12-15T01:35:11;32.80;;;23.77;;
10934;SDS011;5520;45.752;4.874;2022-12-15T01:37:41;28.10;;;22.10;;
10934;SDS011;5520;45.752;4.874;2022-12-15T01:40:10;24.93;;;19.23;;
10934;SDS011;5520;45.752;4.874;2022-12-15T01:42:56;32.83;;;21.13;;
10934;SDS011;5520;45.752;4.874;2022-12-15T01:45:36;30.03;;;22.93;;
10934;SDS011;5520;45.752;4.874;2022-12-15T01:48:08;22.67;;;16.17;;
10934;SDS011;5520;45.752;4.874;2022-12-15T01:50:38;17.53;;;10.67;;
10934;SDS011;5520;45.752;4.874;2022-12-15T01:53:08;15.90;;;11.07;;
10934;SDS011;5520;45.752;4.874;2022-12-15T01:55:37;12.03;;;9.60;;
10934;SDS011;5520;45.752;4.874;2022-12-15T01:58:07;10.80;;;8.27;;
10934;SDS011;5520;45.752;4.874;2022-12-15T02:00:37;8.50;;;6.93;;
10934;SDS011;5520;45.752;4.874;2022-12-15T02:03:05;6.83;;;5.27;;
10934;SDS011;5520;45.752;4.874;2022-12-15T02:05:34;6.17;;;5.53;;
10934;SDS011;5520;45.752;4.874;2022-12-15T02:08:02;9.13;;;6.43;;
10934;SDS011;5520;45.752;4.874;2022-12-15T02:10:35;9.93;;;7.73;;
10934;SDS011;5520;45.752;4.874;2022-12-15T02:13:09;10.30;;;7.70;;
10934;SDS011;5520;45.752;4.874;2022-12-15T02:15:40;10.77;;;8.53;;
10934;SDS011;5520;45.752;4.874;2022-12-15T02:18:11;11.83;;;7.13;;
10934;SDS011;5520;45.752;4.874;2022-12-15T02:20:47;14.23;;;7.83;;
10934;SDS011;5520;45.752;4.874;2022-12-15T02:26:15;8.77;;;7.17;;
10934;SDS011;5520;45.752;4.874;2022-12-15T02:28:49;11.53;;;7.77;;
10934;SDS011;5520;45.752;4.874;2022-12-15T02:31:20;7.13;;;6.27;;
10934;SDS011;5520;45.752;4.874;2022-12-15T02:34:08;7.90;;;6.20;;
10934;SDS011;5520;45.752;4.874;2022-12-15T02:36:38;9.10;;;6.60;;
10934;SDS011;5520;45.752;4.874;2022-12-15T02:39:10;6.70;;;5.40;;
10934;SDS011;5520;45.752;4.874;2022-12-15T02:41:40;5.83;;;4.97;;
10934;SDS011;5520;45.752;4.874;2022-12-15T02:44:09;6.33;;;5.33;;
10934;SDS011;5520;45.752;4.874;2022-12-15T02:46:50;6.83;;;5.73;;
10934;SDS011;5520;45.752;4.874;2022-12-15T02:49:21;8.20;;;6.27;;
10934;SDS011;5520;45.752;4.874;2022-12-15T02:51:54;9.60;;;7.23;;
10934;SDS011;5520;45.752;4.874;2022-12-15T02:54:30;6.40;;;5.63;;
10934;SDS011;5520;45.752;4.874;2022-12-15T02:57:03;6.43;;;5.80;;
10934;SDS011;5520;45.752;4.874;2022-12-15T02:59:35;7.70;;;5.90;;
10934;SDS011;5520;45.752;4.874;2022-12-15T03:02:06;6.47;;;5.70;;
10934;SDS011;5520;45.752;4.874;2022-12-15T03:04:35;7.53;;;5.80;;
10934;SDS011;5520;45.752;4.874;2022-12-15T03:07:04;5.80;;;5.20;;
10934;SDS011;5520;45.752;4.874;2022-12-15T03:09:32;7.30;;;6.10;;
10934;SDS011;5520;45.752;4.874;2022-12-15T03:12:00;6.73;;;5.50;;
10934;SDS011;5520;45.752;4.874;2022-12-15T03:14:28;6.70;;;5.80;;
10934;SDS011;5520;45.752;4.874;2022-12-15T03:16:56;6.13;;;5.53;;
10934;SDS011;5520;45.752;4.874;2022-12-15T03:19:26;8.37;;;6.40;;
10934;SDS011;5520;45.752;4.874;2022-12-15T03:21:54;7.40;;;6.37;;
10934;SDS011;5520;45.752;4.874;2022-12-15T03:24:22;9.23;;;6.33;;
10934;SDS011;5520;45.752;4.874;2022-12-15T03:26:50;6.40;;;5.73;;
10934;SDS011;5520;45.752;4.874;2022-12-15T03:29:18;5.77;;;5.13;;
10934;SDS011;5520;45.752;4.874;2022-12-15T03:31:46;6.73;;;5.37;;
10934;SDS011;5520;45.752;4.874;2022-12-15T03:34:15;6.80;;;6.07;;
10934;SDS011;5520;45.752;4.874;2022-12-15T03:36:45;6.27;;;5.67;;
10934;SDS011;5520;45.752;4.874;2022-12-15T03:39:13;6.50;;;5.83;;
10934;SDS011;5520;45.752;4.874;2022-12-15T03:41:41;5.67;;;4.90;;
10934;SDS011;5520;45.752;4.874;2022-12-15T03:44:09;7.00;;;5.20;;
10934;SDS011;5520;45.752;4.874;2022-12-15T03:46:37;6.27;;;5.43;;
10934;SDS011;5520;45.752;4.874;2022-12-15T03:49:05;6.53;;;5.40;;
10934;SDS011;5520;45.752;4.874;2022-12-15T03:51:33;5.70;;;4.97;;
10934;SDS011;5520;45.752;4.874;2022-12-15T03:54:03;6.07;;;5.23;;
10934;SDS011;5520;45.752;4.874;2022-12-15T03:56:30;6.20;;;5.60;;
10934;SDS011;5520;45.752;4.874;2022-12-15T03:58:59;6.23;;;5.33;;
10934;SDS011;5520;45.752;4.874;2022-12-15T04:01:27;5.67;;;4.57;;
10934;SDS011;5520;45.752;4.874;2022-12-15T04:03:56;7.60;;;5.33;;
10934;SDS011;5520;45.752;4.874;2022-12-15T04:06:26;5.10;;;4.60;;
10934;SDS011;5520;45.752;4.874;2022-12-15T04:08:54;5.37;;;4.87;;
10934;SDS011;5520;45.752;4.874;2022-12-15T04:11:24;8.70;;;5.97;;
10934;SDS011;5520;45.752;4.874;2022-12-15T04:13:52;5.67;;;5.10;;
10934;SDS011;5520;45.752;4.874;2022-12-15T04:16:20;9.13;;;5.77;;
10934;SDS011;5520;45.752;4.874;2022-12-15T04:18:48;5.90;;;5.30;;
10934;SDS011;5520;45.752;4.874;2022-12-15T04:21:36;6.33;;;5.00;;
10934;SDS011;5520;45.752;4.874;2022-12-15T04:24:03;5.40;;;4.90;;
10934;SDS011;5520;45.752;4.874;2022-12-15T04:26:50;6.17;;;5.10;;
10934;SDS011;5520;45.752;4.874;2022-12-15T04:29:35;6.00;;;5.30;;
10934;SDS011;5520;45.752;4.874;2022-12-15T04:32:21;7.10;;;5.20;;
10934;SDS011;5520;45.752;4.874;2022-12-15T04:35:07;5.87;;;4.83;;
10934;SDS011;5520;45.752;4.874;2022-12-15T04:37:52;5.23;;;4.70;;
10934;SDS011;5520;45.752;4.874;2022-12-15T04:40:38;5.40;;;4.83;;
10934;SDS011;5520;45.752;4.874;2022-12-15T04:43:25;6.53;;;5.03;;
10934;SDS011;5520;45.752;4.874;2022-12-15T04:46:10;5.60;;;4.73;;
10934;SDS011;5520;45.752;4.874;2022-12-15T04:48:56;5.60;;;5.10;;
10934;SDS011;5520;45.752;4.874;2022-12-15T04:51:41;6.33;;;4.77;;
10934;SDS011;5520;45.752;4.874;2022-12-15T04:54:27;4.70;;;4.23;;
10934;SDS011;5520;45.752;4.874;2022-12-15T04:57:13;5.23;;;4.77;;
10934;SDS011;5520;45.752;4.874;2022-12-15T05:00:00;6.87;;;5.13;;
10934;SDS011;5520;45.752;4.874;2022-12-15T05:02:45;6.60;;;5.00;;
10934;SDS011;5520;45.752;4.874;2022-12-15T05:05:30;5.53;;;4.90;;
10934;SDS011;5520;45.752;4.874;2022-12-15T05:08:16;6.43;;;5.33;;
10934;SDS011;5520;45.752;4.874;2022-12-15T05:11:01;6.23;;;5.23;;
10934;SDS011;5520;45.752;4.874;2022-12-15T05:13:47;5.37;;;4.87;;
10934;SDS011;5520;45.752;4.874;2022-12-15T05:16:34;8.03;;;5.43;;
10934;SDS011;5520;45.752;4.874;2022-12-15T05:19:20;11.23;;;7.77;;
10934;SDS011;5520;45.752;4.874;2022-12-15T05:22:06;11.83;;;9.73;;
10934;SDS011;5520;45.752;4.874;2022-12-15T05:24:54;15.00;;;12.17;;
10934;SDS011;5520;45.752;4.874;2022-12-15T05:27:40;17.07;;;13.60;;
10934;SDS011;5520;45.752;4.874;2022-12-15T05:30:25;23.03;;;17.33;;
10934;SDS011;5520;45.752;4.874;2022-12-15T05:33:13;20.23;;;15.97;;
10934;SDS011;5520;45.752;4.874;2022-12-15T05:35:41;16.57;;;14.57;;
10934;SDS011;5520;45.752;4.874;2022-12-15T05:38:10;14.70;;;11.50;;
10934;SDS011;5520;45.752;4.874;2022-12-15T05:40:38;13.00;;;9.80;;
10934;SDS011;5520;45.752;4.874;2022-12-15T05:43:08;24.93;;;18.90;;
10934;SDS011;5520;45.752;4.874;2022-12-15T05:45:38;37.40;;;27.53;;
10934;SDS011;5520;45.752;4.874;2022-12-15T05:48:06;40.17;;;32.20;;
10934;SDS011;5520;45.752;4.874;2022-12-15T05:50:36;42.33;;;34.20;;
10934;SDS011;5520;45.752;4.874;2022-12-15T05:53:04;34.23;;;27.00;;
10934;SDS011;5520;45.752;4.874;2022-12-15T05:55:32;31.60;;;25.17;;
10934;SDS011;5520;45.752;4.874;2022-12-15T05:58:00;31.50;;;24.07;;
10934;SDS011;5520;45.752;4.874;2022-12-15T06:00:28;29.17;;;21.87;;
10934;SDS011;5520;45.752;4.874;2022-12-15T06:02:56;31.00;;;23.13;;
10934;SDS011;5520;45.752;4.874;2022-12-15T06:05:24;31.93;;;24.63;;
10934;SDS011;5520;45.752;4.874;2022-12-15T06:07:54;36.53;;;28.63;;
10934;SDS011;5520;45.752;4.874;2022-12-15T06:10:22;37.80;;;27.03;;
10934;SDS011;5520;45.752;4.874;2022-12-15T06:12:50;36.93;;;27.90;;
10934;SDS011;5520;45.752;4.874;2022-12-15T06:15:18;34.67;;;27.37;;
10934;SDS011;5520;45.752;4.874;2022-12-15T06:17:46;34.80;;;28.20;;
10934;SDS011;5520;45.752;4.874;2022-12-15T06:20:15;36.63;;;29.63;;
10934;SDS011;5520;45.752;4.874;2022-12-15T06:22:43;36.83;;;30.23;;
10934;SDS011;5520;45.752;4.874;2022-12-15T06:25:17;41.80;;;31.13;;
10934;SDS011;5520;45.752;4.874;2022-12-15T06:27:45;34.97;;;26.93;;
10934;SDS011;5520;45.752;4.874;2022-12-15T06:30:13;36.60;;;25.77;;
10934;SDS011;5520;45.752;4.874;2022-12-15T06:32:41;31.87;;;23.90;;
10934;SDS011;5520;45.752;4.874;2022-12-15T06:35:09;27.47;;;21.77;;
10934;SDS011;5520;45.752;4.874;2022-12-15T06:37:37;25.27;;;19.60;;
10934;SDS011;5520;45.752;4.874;2022-12-15T06:40:06;23.87;;;17.13;;
10934;SDS011;5520;45.752;4.874;2022-12-15T06:42:35;21.77;;;17.73;;
10934;SDS011;5520;45.752;4.874;2022-12-15T06:45:04;21.17;;;16.97;;
10934;SDS011;5520;45.752;4.874;2022-12-15T06:47:32;23.20;;;17.63;;
10934;SDS011;5520;45.752;4.874;2022-12-15T06:50:00;20.17;;;15.17;;
10934;SDS011;5520;45.752;4.874;2022-12-15T06:52:28;23.63;;;16.07;;
10934;SDS011;5520;45.752;4.874;2022-12-15T06:54:56;18.53;;;14.20;;
10934;SDS011;5520;45.752;4.874;2022-12-15T06:57:24;16.47;;;13.73;;
10934;SDS011;5520;45.752;4.874;2022-12-15T06:59:53;22.83;;;12.47;;
10934;SDS011;5520;45.752;4.874;2022-12-15T07:02:21;16.00;;;11.80;;
10934;SDS011;5520;45.752;4.874;2022-12-15T07:04:54;13.67;;;9.90;;
10934;SDS011;5520;45.752;4.874;2022-12-15T07:07:22;13.03;;;8.93;;
10934;SDS011;5520;45.752;4.874;2022-12-15T07:09:50;12.53;;;8.80;;
10934;SDS011;5520;45.752;4.874;2022-12-15T07:12:18;10.13;;;7.37;;
10934;SDS011;5520;45.752;4.874;2022-12-15T07:14:46;8.77;;;7.47;;
10934;SDS011;5520;45.752;4.874;2022-12-15T07:17:20;9.60;;;7.13;;
10934;SDS011;5520;45.752;4.874;2022-12-15T07:19:52;8.03;;;6.83;;
10934;SDS011;5520;45.752;4.874;2022-12-15T07:22:20;11.33;;;7.60;;
10934;SDS011;5520;45.752;4.874;2022-12-15T07:24:48;12.47;;;6.90;;
10934;SDS011;5520;45.752;4.874;2022-12-15T07:27:16;16.30;;;7.27;;
10934;SDS011;5520;45.752;4.874;2022-12-15T07:29:44;9.43;;;6.37;;
10934;SDS011;5520;45.752;4.874;2022-12-15T07:32:12;8.77;;;6.63;;
10934;SDS011;5520;45.752;4.874;2022-12-15T07:34:42;9.03;;;7.23;;
10934;SDS011;5520;45.752;4.874;2022-12-15T07:37:13;8.20;;;6.13;;
10934;SDS011;5520;45.752;4.874;2022-12-15T07:39:41;6.50;;;5.70;;
10934;SDS011;5520;45.752;4.874;2022-12-15T07:42:09;8.67;;;5.80;;
10934;SDS011;5520;45.752;4.874;2022-12-15T07:44:37;8.93;;;5.83;;
10934;SDS011;5520;45.752;4.874;2022-12-15T07:47:06;9.13;;;6.23;;
10934;SDS011;5520;45.752;4.874;2022-12-15T07:49:34;6.93;;;5.57;;
10934;SDS011;5520;45.752;4.874;2022-12-15T07:52:03;8.23;;;5.77;;
10934;SDS011;5520;45.752;4.874;2022-12-15T07:54:31;6.80;;;5.50;;
10934;SDS011;5520;45.752;4.874;2022-12-15T07:57:00;9.87;;;5.47;;
10934;SDS011;5520;45.752;4.874;2022-12-15T07:59:28;7.33;;;5.60;;
10934;SDS011;5520;45.752;4.874;2022-12-15T08:01:56;8.60;;;6.30;;
10934;SDS011;5520;45.752;4.874;2022-12-15T08:04:26;6.10;;;5.10;;
10934;SDS011;5520;45.752;4.874;2022-12-15T08:06:54;5.90;;;4.80;;
10934;SDS011;5520;45.752;4.874;2022-12-15T08:09:23;6.70;;;5.50;;
10934;SDS011;5520;45.752;4.874;2022-12-15T08:11:51;6.10;;;4.60;;
10934;SDS011;5520;45.752;4.874;2022-12-15T08:14:19;6.67;;;4.87;;
10934;SDS011;5520;45.752;4.874;2022-12-15T08:16:48;7.93;;;4.73;;
10934;SDS011;5520;45.752;4.874;2022-12-15T08:19:16;6.70;;;5.00;;
10934;SDS011;5520;45.752;4.874;2022-12-15T08:21:45;8.43;;;5.00;;
10934;SDS011;5520;45.752;4.874;2022-12-15T08:24:14;6.10;;;4.87;;
10934;SDS011;5520;45.752;4.874;2022-12-15T08:26:44;7.57;;;5.33;;
10934;SDS011;5520;45.752;4.874;2022-12-15T08:29:15;5.43;;;4.57;;
10934;SDS011;5520;45.752;4.874;2022-12-15T08:32:04;5.93;;;4.83;;
10934;SDS011;5520;45.752;4.874;2022-12-15T08:34:32;7.20;;;5.73;;
10934;SDS011;5520;45.752;4.874;2022-12-15T08:37:01;5.37;;;4.87;;
10934;SDS011;5520;45.752;4.874;2022-12-15T08:39:29;5.57;;;4.73;;
10934;SDS011;5520;45.752;4.874;2022-12-15T08:41:58;6.63;;;5.47;;
10934;SDS011;5520;45.752;4.874;2022-12-15T08:44:26;7.00;;;5.10;;
10934;SDS011;5520;45.752;4.874;2022-12-15T08:46:54;8.87;;;5.43;;
10934;SDS011;5520;45.752;4.874;2022-12-15T08:49:22;10.60;;;6.67;;
10934;SDS011;5520;45.752;4.874;2022-12-15T08:51:51;9.60;;;6.83;;
10934;SDS011;5520;45.752;4.874;2022-12-15T08:54:19;13.17;;;9.50;;
10934;SDS011;5520;45.752;4.874;2022-12-15T08:56:47;16.20;;;10.87;;
10934;SDS011;5520;45.752;4.874;2022-12-15T08:59:17;16.10;;;10.07;;
10934;SDS011;5520;45.752;4.874;2022-12-15T09:01:45;17.80;;;11.57;;
10934;SDS011;5520;45.752;4.874;2022-12-15T09:04:14;14.50;;;9.90;;
10934;SDS011;5520;45.752;4.874;2022-12-15T09:06:42;17.47;;;10.43;;
10934;SDS011;5520;45.752;4.874;2022-12-15T09:09:16;18.27;;;10.80;;
10934;SDS011;5520;45.752;4.874;2022-12-15T09:11:48;17.30;;;10.70;;
10934;SDS011;5520;45.752;4.874;2022-12-15T09:14:18;17.17;;;11.33;;
10934;SDS011;5520;45.752;4.874;2022-12-15T09:16:54;14.00;;;9.67;;
10934;SDS011;5520;45.752;4.874;2022-12-15T09:19:23;16.73;;;10.40;;
10934;SDS011;5520;45.752;4.874;2022-12-15T09:21:51;14.43;;;9.43;;
10934;SDS011;5520;45.752;4.874;2022-12-15T09:24:22;17.73;;;9.90;;
10934;SDS011;5520;45.752;4.874;2022-12-15T09:27:00;18.30;;;10.13;;
10934;SDS011;5520;45.752;4.874;2022-12-15T09:29:30;13.03;;;9.07;;
10934;SDS011;5520;45.752;4.874;2022-12-15T09:31:58;14.47;;;9.50;;
10934;SDS011;5520;45.752;4.874;2022-12-15T09:34:27;14.63;;;8.33;;
10934;SDS011;5520;45.752;4.874;2022-12-15T09:36:55;13.63;;;9.00;;
10934;SDS011;5520;45.752;4.874;2022-12-15T09:39:23;18.20;;;10.23;;
10934;SDS011;5520;45.752;4.874;2022-12-15T09:41:52;16.17;;;9.63;;
10934;SDS011;5520;45.752;4.874;2022-12-15T09:44:21;14.17;;;9.53;;
10934;SDS011;5520;45.752;4.874;2022-12-15T09:47:00;13.63;;;8.53;;
10934;SDS011;5520;45.752;4.874;2022-12-15T09:49:52;12.63;;;8.33;;
10934;SDS011;5520;45.752;4.874;2022-12-15T09:52:21;12.10;;;8.40;;
10934;SDS011;5520;45.752;4.874;2022-12-15T09:54:50;9.90;;;7.97;;
10934;SDS011;5520;45.752;4.874;2022-12-15T09:57:30;14.37;;;8.50;;
10934;SDS011;5520;45.752;4.874;2022-12-15T10:00:06;12.53;;;8.60;;
10934;SDS011;5520;45.752;4.874;2022-12-15T10:02:49;15.07;;;8.90;;
10934;SDS011;5520;45.752;4.874;2022-12-15T10:05:26;15.43;;;8.83;;
10934;SDS011;5520;45.752;4.874;2022-12-15T10:08:19;25.73;;;10.60;;
10934;SDS011;5520;45.752;4.874;2022-12-15T10:10:51;16.33;;;9.33;;
10934;SDS011;5520;45.752;4.874;2022-12-15T10:13:21;15.87;;;9.73;;
10934;SDS011;5520;45.752;4.874;2022-12-15T10:15:52;17.23;;;9.93;;
10934;SDS011;5520;45.752;4.874;2022-12-15T10:18:25;19.90;;;10.17;;
10934;SDS011;5520;45.752;4.874;2022-12-15T10:20:58;18.83;;;9.47;;
10934;SDS011;5520;45.752;4.874;2022-12-15T10:23:27;19.57;;;9.10;;
10934;SDS011;5520;45.752;4.874;2022-12-15T10:25:57;17.03;;;10.37;;
10934;SDS011;5520;45.752;4.874;2022-12-15T10:28:30;15.33;;;9.27;;
10934;SDS011;5520;45.752;4.874;2022-12-15T10:31:06;20.13;;;11.80;;
10934;SDS011;5520;45.752;4.874;2022-12-15T10:33:40;21.47;;;11.33;;
10934;SDS011;5520;45.752;4.874;2022-12-15T10:36:15;22.90;;;11.73;;
10934;SDS011;5520;45.752;4.874;2022-12-15T10:38:44;20.30;;;11.07;;
10934;SDS011;5520;45.752;4.874;2022-12-15T10:41:16;18.60;;;11.20;;
10934;SDS011;5520;45.752;4.874;2022-12-15T10:43:46;17.83;;;11.20;;
10934;SDS011;5520;45.752;4.874;2022-12-15T10:46:16;22.90;;;10.73;;
10934;SDS011;5520;45.752;4.874;2022-12-15T10:48:47;19.20;;;9.90;;
10934;SDS011;5520;45.752;4.874;2022-12-15T10:51:17;17.30;;;10.47;;
10934;SDS011;5520;45.752;4.874;2022-12-15T10:53:47;23.23;;;12.27;;
10934;SDS011;5520;45.752;4.874;2022-12-15T10:56:23;23.33;;;11.57;;
10934;SDS011;5520;45.752;4.874;2022-12-15T10:59:00;21.67;;;11.30;;
10934;SDS011;5520;45.752;4.874;2022-12-15T11:01:33;20.10;;;12.00;;
10934;SDS011;5520;45.752;4.874;2022-12-15T11:04:12;23.10;;;12.00;;
10934;SDS011;5520;45.752;4.874;2022-12-15T11:06:57;17.57;;;10.53;;
10934;SDS011;5520;45.752;4.874;2022-12-15T11:09:27;24.40;;;12.37;;
10934;SDS011;5520;45.752;4.874;2022-12-15T11:11:55;18.57;;;10.53;;
10934;SDS011;5520;45.752;4.874;2022-12-15T11:14:42;15.83;;;9.50;;
10934;SDS011;5520;45.752;4.874;2022-12-15T11:17:13;11.67;;;8.77;;
10934;SDS011;5520;45.752;4.874;2022-12-15T11:19:46;15.00;;;8.57;;
10934;SDS011;5520;45.752;4.874;2022-12-15T11:22:16;14.93;;;8.67;;
10934;SDS011;5520;45.752;4.874;2022-12-15T11:24:48;13.77;;;8.00;;
10934;SDS011;5520;45.752;4.874;2022-12-15T11:27:18;15.97;;;9.47;;
10934;SDS011;5520;45.752;4.874;2022-12-15T11:29:53;13.30;;;8.77;;
10934;SDS011;5520;45.752;4.874;2022-12-15T11:32:24;13.80;;;8.50;;
10934;SDS011;5520;45.752;4.874;2022-12-15T11:34:54;12.73;;;8.17;;
10934;SDS011;5520;45.752;4.874;2022-12-15T11:37:34;11.43;;;8.37;;
10934;SDS011;5520;45.752;4.874;2022-12-15T11:40:11;10.57;;;7.63;;
10934;SDS011;5520;45.752;4.874;2022-12-15T11:42:42;9.60;;;7.30;;
10934;SDS011;5520;45.752;4.874;2022-12-15T11:45:16;11.67;;;7.53;;
10934;SDS011;5520;45.752;4.874;2022-12-15T11:47:46;10.13;;;7.00;;
10934;SDS011;5520;45.752;4.874;2022-12-15T11:50:20;8.47;;;6.07;;
10934;SDS011;5520;45.752;4.874;2022-12-15T11:53:01;10.43;;;6.10;;
10934;SDS011;5520;45.752;4.874;2022-12-15T11:55:37;12.27;;;7.10;;
10934;SDS011;5520;45.752;4.874;2022-12-15T11:58:12;10.97;;;7.70;;
10934;SDS011;5520;45.752;4.874;2022-12-15T12:00:48;9.80;;;6.27;;
10934;SDS011;5520;45.752;4.874;2022-12-15T12:03:20;8.33;;;6.13;;
10934;SDS011;5520;45.752;4.874;2022-12-15T12:06:00;6.97;;;4.80;;
10934;SDS011;5520;45.752;4.874;2022-12-15T12:08:37;7.13;;;4.57;;
10934;SDS011;5520;45.752;4.874;2022-12-15T12:11:09;7.57;;;5.10;;
10934;SDS011;5520;45.752;4.874;2022-12-15T12:13:43;5.90;;;3.93;;
10934;SDS011;5520;45.752;4.874;2022-12-15T12:16:22;6.93;;;4.70;;
10934;SDS011;5520;45.752;4.874;2022-12-15T12:18:56;6.43;;;4.30;;
10934;SDS011;5520;45.752;4.874;2022-12-15T12:21:27;6.90;;;4.70;;
10934;SDS011;5520;45.752;4.874;2022-12-15T12:23:57;6.00;;;4.67;;
10934;SDS011;5520;45.752;4.874;2022-12-15T12:26:28;5.73;;;4.43;;
10934;SDS011;5520;45.752;4.874;2022-12-15T12:28:59;8.30;;;4.03;;
10934;SDS011;5520;45.752;4.874;2022-12-15T12:31:32;4.50;;;3.67;;
10934;SDS011;5520;45.752;4.874;2022-12-15T12:34:02;6.07;;;3.90;;
10934;SDS011;5520;45.752;4.874;2022-12-15T12:36:34;4.33;;;3.83;;
10934;SDS011;5520;45.752;4.874;2022-12-15T12:39:02;6.13;;;4.47;;
10934;SDS011;5520;45.752;4.874;2022-12-15T12:41:32;5.50;;;4.33;;
10934;SDS011;5520;45.752;4.874;2022-12-15T12:44:04;4.27;;;3.73;;
10934;SDS011;5520;45.752;4.874;2022-12-15T12:46:38;7.73;;;4.30;;
10934;SDS011;5520;45.752;4.874;2022-12-15T12:49:11;4.90;;;4.03;;
10934;SDS011;5520;45.752;4.874;2022-12-15T12:51:49;5.47;;;3.77;;
10934;SDS011;5520;45.752;4.874;2022-12-15T12:57:31;6.50;;;4.50;;
10934;SDS011;5520;45.752;4.874;2022-12-15T13:00:00;4.93;;;3.60;;
10934;SDS011;5520;45.752;4.874;2022-12-15T13:02:40;4.70;;;3.50;;
10934;SDS011;5520;45.752;4.874;2022-12-15T13:05:24;5.90;;;3.63;;
10934;SDS011;5520;45.752;4.874;2022-12-15T13:07:54;7.60;;;3.87;;
10934;SDS011;5520;45.752;4.874;2022-12-15T13:10:24;4.73;;;4.10;;
10934;SDS011;5520;45.752;4.874;2022-12-15T13:12:53;8.00;;;4.47;;
10934;SDS011;5520;45.752;4.874;2022-12-15T13:15:30;5.80;;;4.13;;
10934;SDS011;5520;45.752;4.874;2022-12-15T13:18:03;3.53;;;3.20;;
10934;SDS011;5520;45.752;4.874;2022-12-15T13:20:33;4.40;;;3.60;;
10934;SDS011;5520;45.752;4.874;2022-12-15T13:26:14;4.10;;;3.63;;
10934;SDS011;5520;45.752;4.874;2022-12-15T13:28:48;3.47;;;3.00;;
10934;SDS011;5520;45.752;4.874;2022-12-15T13:31:29;3.83;;;3.33;;
10934;SDS011;5520;45.752;4.874;2022-12-15T13:36:54;3.47;;;3.17;;
10934;SDS011;5520;45.752;4.874;2022-12-15T13:42:27;6.77;;;3.50;;
10934;SDS011;5520;45.752;4.874;2022-12-15T13:45:09;4.67;;;3.03;;
10934;SDS011;5520;45.752;4.874;2022-12-15T13:47:41;3.43;;;2.97;;
10934;SDS011;5520;45.752;4.874;2022-12-15T13:50:19;5.20;;;3.17;;
10934;SDS011;5520;45.752;4.874;2022-12-15T13:52:51;4.03;;;2.80;;
10934;SDS011;5520;45.752;4.874;2022-12-15T13:55:45;3.00;;;2.80;;
10934;SDS011;5520;45.752;4.874;2022-12-15T13:58:19;4.07;;;2.83;;
10934;SDS011;5520;45.752;4.874;2022-12-15T14:00:49;2.63;;;2.43;;
10934;SDS011;5520;45.752;4.874;2022-12-15T14:03:18;2.77;;;2.50;;
10934;SDS011;5520;45.752;4.874;2022-12-15T14:05:48;4.50;;;2.90;;
10934;SDS011;5520;45.752;4.874;2022-12-15T14:08:16;3.17;;;2.20;;
10934;SDS011;5520;45.752;4.874;2022-12-15T14:10:45;3.27;;;2.60;;
10934;SDS011;5520;45.752;4.874;2022-12-15T14:13:19;3.90;;;2.60;;
10934;SDS011;5520;45.752;4.874;2022-12-15T14:15:50;2.87;;;2.40;;
10934;SDS011;5520;45.752;4.874;2022-12-15T14:18:21;3.23;;;2.70;;
10934;SDS011;5520;45.752;4.874;2022-12-15T14:20:52;3.63;;;2.63;;
10934;SDS011;5520;45.752;4.874;2022-12-15T14:23:23;2.77;;;2.43;;
10934;SDS011;5520;45.752;4.874;2022-12-15T14:25:51;3.93;;;2.50;;
10934;SDS011;5520;45.752;4.874;2022-12-15T14:28:25;4.83;;;2.60;;
10934;SDS011;5520;45.752;4.874;2022-12-15T14:30:59;2.80;;;2.60;;
10934;SDS011;5520;45.752;4.874;2022-12-15T14:33:30;2.83;;;2.63;;
10934;SDS011;5520;45.752;4.874;2022-12-15T14:35:59;3.50;;;2.33;;
10934;SDS011;5520;45.752;4.874;2022-12-15T14:38:29;3.50;;;2.53;;
10934;SDS011;5520;45.752;4.874;2022-12-15T14:40:59;2.83;;;2.27;;
10934;SDS011;5520;45.752;4.874;2022-12-15T14:43:30;2.70;;;2.37;;
10934;SDS011;5520;45.752;4.874;2022-12-15T14:46:04;2.70;;;2.37;;
10934;SDS011;5520;45.752;4.874;2022-12-15T14:48:33;5.20;;;2.73;;
10934;SDS011;5520;45.752;4.874;2022-12-15T14:51:23;2.60;;;2.40;;
10934;SDS011;5520;45.752;4.874;2022-12-15T14:53:52;5.37;;;2.97;;
10934;SDS011;5520;45.752;4.874;2022-12-15T14:56:23;2.77;;;2.13;;
10934;SDS011;5520;45.752;4.874;2022-12-15T14:59:17;3.37;;;2.87;;
10934;SDS011;5520;45.752;4.874;2022-12-15T15:01:49;4.43;;;2.10;;
10934;SDS011;5520;45.752;4.874;2022-12-15T15:04:25;3.70;;;2.63;;
10934;SDS011;5520;45.752;4.874;2022-12-15T15:06:55;3.93;;;2.70;;
10934;SDS011;5520;45.752;4.874;2022-12-15T15:09:24;3.43;;;2.40;;
10934;SDS011;5520;45.752;4.874;2022-12-15T15:11:53;5.27;;;2.40;;
10934;SDS011;5520;45.752;4.874;2022-12-15T15:14:24;5.23;;;2.50;;
10934;SDS011;5520;45.752;4.874;2022-12-15T15:17:01;3.13;;;2.40;;
10934;SDS011;5520;45.752;4.874;2022-12-15T15:19:30;3.80;;;2.60;;
10934;SDS011;5520;45.752;4.874;2022-12-15T15:22:04;2.53;;;2.33;;
10934;SDS011;5520;45.752;4.874;2022-12-15T15:24:33;2.67;;;2.47;;
10934;SDS011;5520;45.752;4.874;2022-12-15T15:29:59;3.23;;;2.93;;
10934;SDS011;5520;45.752;4.874;2022-12-15T15:32:47;2.13;;;1.93;;
10934;SDS011;5520;45.752;4.874;2022-12-15T15:35:15;2.70;;;2.23;;
10934;SDS011;5520;45.752;4.874;2022-12-15T15:37:44;2.87;;;2.67;;
10934;SDS011;5520;45.752;4.874;2022-12-15T15:40:12;3.17;;;2.57;;
10934;SDS011;5520;45.752;4.874;2022-12-15T15:42:41;2.50;;;2.30;;
10934;SDS011;5520;45.752;4.874;2022-12-15T15:45:12;3.03;;;2.73;;
10934;SDS011;5520;45.752;4.874;2022-12-15T15:47:41;2.43;;;2.23;;